sensor_id;sensor_type;location;lat;lon;timestamp;P1;durP1;ratioP1;P2;durP2;ratioP2
25824;SDS011;13658;44.534;18.694;2024-02-21T00:02:19;152.48;;;77.85;;
25824;SDS011;13658;44.534;18.694;2024-02-21T00:04:45;136.75;;;74.00;;
25824;SDS011;13658;44.534;18.694;2024-02-21T00:07:12;150.32;;;76.75;;
25824;SDS011;13658;44.534;18.694;2024-02-21T00:09:38;139.43;;;72.38;;
25824;SDS011;13658;44.534;18.694;2024-02-21T00:12:04;132.52;;;67.55;;
25824;SDS011;13658;44.534;18.694;2024-02-21T00:14:30;113.65;;;61.15;;
25824;SDS011;13658;44.534;18.694;2024-02-21T00:16:56;114.25;;;60.05;;
25824;SDS011;13658;44.534;18.694;2024-02-21T00:19:22;122.80;;;63.25;;
25824;SDS011;13658;44.534;18.694;2024-02-21T00:21:48;147.77;;;76.32;;
25824;SDS011;13658;44.534;18.694;2024-02-21T00:24:14;142.93;;;74.28;;
25824;SDS011;13658;44.534;18.694;2024-02-21T00:26:40;138.02;;;67.72;;
25824;SDS011;13658;44.534;18.694;2024-02-21T00:29:06;124.50;;;66.88;;
25824;SDS011;13658;44.534;18.694;2024-02-21T00:31:31;120.70;;;64.75;;
25824;SDS011;13658;44.534;18.694;2024-02-21T00:33:57;118.15;;;61.70;;
25824;SDS011;13658;44.534;18.694;2024-02-21T00:36:23;100.63;;;56.22;;
25824;SDS011;13658;44.534;18.694;2024-02-21T00:38:49;114.05;;;59.45;;
25824;SDS011;13658;44.534;18.694;2024-02-21T00:41:15;91.35;;;50.33;;
25824;SDS011;13658;44.534;18.694;2024-02-21T00:43:41;102.38;;;52.33;;
25824;SDS011;13658;44.534;18.694;2024-02-21T00:46:07;102.40;;;52.08;;
25824;SDS011;13658;44.534;18.694;2024-02-21T00:48:33;101.22;;;54.38;;
25824;SDS011;13658;44.534;18.694;2024-02-21T00:50:59;93.78;;;50.88;;
25824;SDS011;13658;44.534;18.694;2024-02-21T00:53:25;90.38;;;51.47;;
25824;SDS011;13658;44.534;18.694;2024-02-21T00:55:51;91.25;;;50.90;;
25824;SDS011;13658;44.534;18.694;2024-02-21T00:58:17;88.10;;;49.70;;
25824;SDS011;13658;44.534;18.694;2024-02-21T01:00:43;80.30;;;47.22;;
25824;SDS011;13658;44.534;18.694;2024-02-21T01:03:09;86.00;;;48.28;;
25824;SDS011;13658;44.534;18.694;2024-02-21T01:05:35;80.88;;;47.03;;
25824;SDS011;13658;44.534;18.694;2024-02-21T01:08:01;80.35;;;46.10;;
25824;SDS011;13658;44.534;18.694;2024-02-21T01:10:26;80.47;;;45.70;;
25824;SDS011;13658;44.534;18.694;2024-02-21T01:12:52;81.72;;;45.97;;
25824;SDS011;13658;44.534;18.694;2024-02-21T01:15:18;112.25;;;62.20;;
25824;SDS011;13658;44.534;18.694;2024-02-21T01:17:44;124.07;;;66.03;;
25824;SDS011;13658;44.534;18.694;2024-02-21T01:20:10;133.40;;;68.13;;
25824;SDS011;13658;44.534;18.694;2024-02-21T01:22:36;126.38;;;65.88;;
25824;SDS011;13658;44.534;18.694;2024-02-21T01:25:02;122.20;;;66.43;;
25824;SDS011;13658;44.534;18.694;2024-02-21T01:27:28;125.13;;;66.15;;
25824;SDS011;13658;44.534;18.694;2024-02-21T01:29:54;125.85;;;67.50;;
25824;SDS011;13658;44.534;18.694;2024-02-21T01:32:20;128.13;;;64.50;;
25824;SDS011;13658;44.534;18.694;2024-02-21T01:34:47;121.78;;;66.95;;
25824;SDS011;13658;44.534;18.694;2024-02-21T01:37:13;127.07;;;69.05;;
25824;SDS011;13658;44.534;18.694;2024-02-21T01:39:38;136.68;;;70.38;;
25824;SDS011;13658;44.534;18.694;2024-02-21T01:42:04;135.15;;;70.80;;
25824;SDS011;13658;44.534;18.694;2024-02-21T01:44:31;132.27;;;70.88;;
25824;SDS011;13658;44.534;18.694;2024-02-21T01:46:57;131.40;;;67.72;;
25824;SDS011;13658;44.534;18.694;2024-02-21T01:49:23;134.35;;;69.80;;
25824;SDS011;13658;44.534;18.694;2024-02-21T01:51:49;130.48;;;68.53;;
25824;SDS011;13658;44.534;18.694;2024-02-21T01:54:17;130.85;;;68.15;;
25824;SDS011;13658;44.534;18.694;2024-02-21T01:56:43;138.38;;;68.65;;
25824;SDS011;13658;44.534;18.694;2024-02-21T01:59:10;123.90;;;66.53;;
25824;SDS011;13658;44.534;18.694;2024-02-21T02:01:38;121.03;;;64.18;;
25824;SDS011;13658;44.534;18.694;2024-02-21T02:04:05;123.18;;;65.63;;
25824;SDS011;13658;44.534;18.694;2024-02-21T02:06:31;124.03;;;63.80;;
25824;SDS011;13658;44.534;18.694;2024-02-21T02:08:57;116.55;;;64.07;;
25824;SDS011;13658;44.534;18.694;2024-02-21T02:11:23;121.18;;;64.13;;
25824;SDS011;13658;44.534;18.694;2024-02-21T02:13:49;121.70;;;64.15;;
25824;SDS011;13658;44.534;18.694;2024-02-21T02:16:15;124.25;;;63.28;;
25824;SDS011;13658;44.534;18.694;2024-02-21T02:18:41;120.38;;;61.97;;
25824;SDS011;13658;44.534;18.694;2024-02-21T02:21:09;121.15;;;62.35;;
25824;SDS011;13658;44.534;18.694;2024-02-21T02:23:41;114.25;;;60.95;;
25824;SDS011;13658;44.534;18.694;2024-02-21T02:26:08;115.22;;;61.95;;
25824;SDS011;13658;44.534;18.694;2024-02-21T02:28:34;117.28;;;59.25;;
25824;SDS011;13658;44.534;18.694;2024-02-21T02:31:00;109.07;;;58.20;;
25824;SDS011;13658;44.534;18.694;2024-02-21T02:33:25;110.90;;;58.90;;
25824;SDS011;13658;44.534;18.694;2024-02-21T02:35:51;108.28;;;58.38;;
25824;SDS011;13658;44.534;18.694;2024-02-21T02:38:17;109.10;;;56.75;;
25824;SDS011;13658;44.534;18.694;2024-02-21T02:40:43;101.55;;;55.33;;
25824;SDS011;13658;44.534;18.694;2024-02-21T02:43:09;96.25;;;54.35;;
25824;SDS011;13658;44.534;18.694;2024-02-21T02:45:35;89.03;;;50.70;;
25824;SDS011;13658;44.534;18.694;2024-02-21T02:48:01;93.20;;;52.33;;
25824;SDS011;13658;44.534;18.694;2024-02-21T02:50:27;88.95;;;49.78;;
25824;SDS011;13658;44.534;18.694;2024-02-21T02:52:54;92.25;;;52.42;;
25824;SDS011;13658;44.534;18.694;2024-02-21T02:55:20;101.53;;;54.85;;
25824;SDS011;13658;44.534;18.694;2024-02-21T02:57:46;76.05;;;45.03;;
25824;SDS011;13658;44.534;18.694;2024-02-21T03:00:12;71.57;;;42.85;;
25824;SDS011;13658;44.534;18.694;2024-02-21T03:02:40;79.30;;;44.20;;
25824;SDS011;13658;44.534;18.694;2024-02-21T03:05:14;79.18;;;43.60;;
25824;SDS011;13658;44.534;18.694;2024-02-21T03:07:41;75.95;;;42.53;;
25824;SDS011;13658;44.534;18.694;2024-02-21T03:10:08;71.15;;;41.05;;
25824;SDS011;13658;44.534;18.694;2024-02-21T03:12:34;70.32;;;41.47;;
25824;SDS011;13658;44.534;18.694;2024-02-21T03:15:01;67.68;;;40.22;;
25824;SDS011;13658;44.534;18.694;2024-02-21T03:17:27;73.25;;;41.60;;
25824;SDS011;13658;44.534;18.694;2024-02-21T03:19:53;69.00;;;40.22;;
25824;SDS011;13658;44.534;18.694;2024-02-21T03:22:20;84.60;;;49.33;;
25824;SDS011;13658;44.534;18.694;2024-02-21T03:24:47;87.68;;;49.25;;
25824;SDS011;13658;44.534;18.694;2024-02-21T03:27:13;83.05;;;47.20;;
25824;SDS011;13658;44.534;18.694;2024-02-21T03:29:39;81.88;;;47.60;;
25824;SDS011;13658;44.534;18.694;2024-02-21T03:32:05;80.68;;;47.70;;
25824;SDS011;13658;44.534;18.694;2024-02-21T03:34:31;82.53;;;47.80;;
25824;SDS011;13658;44.534;18.694;2024-02-21T03:36:57;83.15;;;49.55;;
25824;SDS011;13658;44.534;18.694;2024-02-21T03:39:24;82.28;;;48.03;;
25824;SDS011;13658;44.534;18.694;2024-02-21T03:41:50;82.68;;;49.28;;
25824;SDS011;13658;44.534;18.694;2024-02-21T03:44:16;81.40;;;47.72;;
25824;SDS011;13658;44.534;18.694;2024-02-21T03:46:42;78.75;;;47.35;;
25824;SDS011;13658;44.534;18.694;2024-02-21T03:49:08;83.97;;;48.25;;
25824;SDS011;13658;44.534;18.694;2024-02-21T03:51:34;79.47;;;49.47;;
25824;SDS011;13658;44.534;18.694;2024-02-21T03:54:00;85.95;;;50.33;;
25824;SDS011;13658;44.534;18.694;2024-02-21T03:56:26;91.10;;;53.63;;
25824;SDS011;13658;44.534;18.694;2024-02-21T03:58:52;85.00;;;51.28;;
25824;SDS011;13658;44.534;18.694;2024-02-21T04:01:18;90.72;;;51.90;;
25824;SDS011;13658;44.534;18.694;2024-02-21T04:03:44;84.20;;;50.45;;
25824;SDS011;13658;44.534;18.694;2024-02-21T04:06:10;75.00;;;44.33;;
25824;SDS011;13658;44.534;18.694;2024-02-21T04:08:36;74.78;;;43.53;;
25824;SDS011;13658;44.534;18.694;2024-02-21T04:11:02;78.38;;;45.80;;
25824;SDS011;13658;44.534;18.694;2024-02-21T04:13:28;73.22;;;43.45;;
25824;SDS011;13658;44.534;18.694;2024-02-21T04:15:54;73.38;;;42.90;;
25824;SDS011;13658;44.534;18.694;2024-02-21T04:18:20;69.95;;;43.03;;
25824;SDS011;13658;44.534;18.694;2024-02-21T04:20:46;72.78;;;42.03;;
25824;SDS011;13658;44.534;18.694;2024-02-21T04:23:12;73.05;;;43.60;;
25824;SDS011;13658;44.534;18.694;2024-02-21T04:25:38;83.28;;;50.47;;
25824;SDS011;13658;44.534;18.694;2024-02-21T04:28:04;80.93;;;50.03;;
25824;SDS011;13658;44.534;18.694;2024-02-21T04:30:30;78.22;;;49.42;;
25824;SDS011;13658;44.534;18.694;2024-02-21T04:32:56;84.35;;;49.95;;
25824;SDS011;13658;44.534;18.694;2024-02-21T04:35:22;80.13;;;49.72;;
25824;SDS011;13658;44.534;18.694;2024-02-21T04:37:48;78.88;;;48.45;;
25824;SDS011;13658;44.534;18.694;2024-02-21T04:40:15;87.93;;;51.92;;
25824;SDS011;13658;44.534;18.694;2024-02-21T04:42:42;86.90;;;51.53;;
25824;SDS011;13658;44.534;18.694;2024-02-21T04:45:08;93.70;;;52.70;;
25824;SDS011;13658;44.534;18.694;2024-02-21T04:47:34;82.97;;;50.95;;
25824;SDS011;13658;44.534;18.694;2024-02-21T04:50:00;81.43;;;51.40;;
25824;SDS011;13658;44.534;18.694;2024-02-21T04:52:26;72.47;;;44.85;;
25824;SDS011;13658;44.534;18.694;2024-02-21T04:54:52;70.47;;;41.90;;
25824;SDS011;13658;44.534;18.694;2024-02-21T04:57:18;65.65;;;40.55;;
25824;SDS011;13658;44.534;18.694;2024-02-21T04:59:44;66.55;;;41.10;;
25824;SDS011;13658;44.534;18.694;2024-02-21T05:02:11;73.82;;;42.67;;
25824;SDS011;13658;44.534;18.694;2024-02-21T05:04:37;75.63;;;44.88;;
25824;SDS011;13658;44.534;18.694;2024-02-21T05:07:03;74.18;;;45.92;;
25824;SDS011;13658;44.534;18.694;2024-02-21T05:09:30;74.70;;;45.88;;
25824;SDS011;13658;44.534;18.694;2024-02-21T05:11:56;84.75;;;53.30;;
25824;SDS011;13658;44.534;18.694;2024-02-21T05:14:24;83.78;;;49.58;;
25824;SDS011;13658;44.534;18.694;2024-02-21T05:16:52;90.13;;;51.80;;
25824;SDS011;13658;44.534;18.694;2024-02-21T05:19:18;98.75;;;55.85;;
25824;SDS011;13658;44.534;18.694;2024-02-21T05:21:44;91.40;;;55.13;;
25824;SDS011;13658;44.534;18.694;2024-02-21T05:24:11;83.65;;;49.50;;
25824;SDS011;13658;44.534;18.694;2024-02-21T05:26:37;82.72;;;49.35;;
25824;SDS011;13658;44.534;18.694;2024-02-21T05:29:03;86.22;;;50.90;;
25824;SDS011;13658;44.534;18.694;2024-02-21T05:34:16;95.75;;;53.95;;
25824;SDS011;13658;44.534;18.694;2024-02-21T05:36:43;95.30;;;57.15;;
25824;SDS011;13658;44.534;18.694;2024-02-21T05:39:09;102.43;;;57.42;;
25824;SDS011;13658;44.534;18.694;2024-02-21T05:41:35;101.18;;;58.35;;
25824;SDS011;13658;44.534;18.694;2024-02-21T05:44:01;111.68;;;66.03;;
25824;SDS011;13658;44.534;18.694;2024-02-21T05:46:27;115.95;;;64.25;;
25824;SDS011;13658;44.534;18.694;2024-02-21T05:48:53;119.10;;;67.18;;
25824;SDS011;13658;44.534;18.694;2024-02-21T05:51:19;105.55;;;61.80;;
25824;SDS011;13658;44.534;18.694;2024-02-21T05:53:45;95.18;;;56.05;;
25824;SDS011;13658;44.534;18.694;2024-02-21T05:56:12;85.68;;;52.35;;
25824;SDS011;13658;44.534;18.694;2024-02-21T05:58:38;88.95;;;55.00;;
25824;SDS011;13658;44.534;18.694;2024-02-21T06:01:04;102.75;;;59.75;;
25824;SDS011;13658;44.534;18.694;2024-02-21T06:03:32;121.22;;;68.28;;
25824;SDS011;13658;44.534;18.694;2024-02-21T06:05:59;112.63;;;62.78;;
25824;SDS011;13658;44.534;18.694;2024-02-21T06:08:25;116.97;;;64.60;;
25824;SDS011;13658;44.534;18.694;2024-02-21T06:10:51;104.97;;;60.90;;
25824;SDS011;13658;44.534;18.694;2024-02-21T06:13:23;107.15;;;62.10;;
25824;SDS011;13658;44.534;18.694;2024-02-21T06:15:49;110.40;;;63.13;;
25824;SDS011;13658;44.534;18.694;2024-02-21T06:18:17;125.03;;;68.65;;
25824;SDS011;13658;44.534;18.694;2024-02-21T06:20:43;118.65;;;65.82;;
25824;SDS011;13658;44.534;18.694;2024-02-21T06:23:09;117.10;;;66.50;;
25824;SDS011;13658;44.534;18.694;2024-02-21T06:25:36;120.80;;;69.43;;
25824;SDS011;13658;44.534;18.694;2024-02-21T06:28:03;122.60;;;68.80;;
25824;SDS011;13658;44.534;18.694;2024-02-21T06:30:29;121.70;;;67.90;;
25824;SDS011;13658;44.534;18.694;2024-02-21T06:32:55;120.82;;;67.47;;
25824;SDS011;13658;44.534;18.694;2024-02-21T06:35:21;121.15;;;66.18;;
25824;SDS011;13658;44.534;18.694;2024-02-21T06:37:49;124.38;;;68.28;;
25824;SDS011;13658;44.534;18.694;2024-02-21T06:40:17;127.72;;;66.43;;
25824;SDS011;13658;44.534;18.694;2024-02-21T06:42:45;134.80;;;70.38;;
25824;SDS011;13658;44.534;18.694;2024-02-21T06:45:10;127.35;;;70.57;;
25824;SDS011;13658;44.534;18.694;2024-02-21T06:47:36;127.65;;;73.22;;
25824;SDS011;13658;44.534;18.694;2024-02-21T06:50:02;135.57;;;75.35;;
25824;SDS011;13658;44.534;18.694;2024-02-21T06:52:28;116.85;;;63.50;;
25824;SDS011;13658;44.534;18.694;2024-02-21T06:54:54;110.00;;;60.90;;
25824;SDS011;13658;44.534;18.694;2024-02-21T06:57:20;122.18;;;65.50;;
25824;SDS011;13658;44.534;18.694;2024-02-21T06:59:46;135.00;;;73.60;;
25824;SDS011;13658;44.534;18.694;2024-02-21T07:02:12;125.18;;;70.97;;
25824;SDS011;13658;44.534;18.694;2024-02-21T07:04:38;117.88;;;63.80;;
25824;SDS011;13658;44.534;18.694;2024-02-21T07:07:04;118.70;;;66.43;;
25824;SDS011;13658;44.534;18.694;2024-02-21T07:09:30;123.07;;;68.57;;
25824;SDS011;13658;44.534;18.694;2024-02-21T07:12:00;136.73;;;74.25;;
25824;SDS011;13658;44.534;18.694;2024-02-21T07:14:29;145.40;;;77.50;;
25824;SDS011;13658;44.534;18.694;2024-02-21T07:16:55;132.80;;;73.70;;
25824;SDS011;13658;44.534;18.694;2024-02-21T07:19:22;133.27;;;75.05;;
25824;SDS011;13658;44.534;18.694;2024-02-21T07:21:48;139.05;;;79.88;;
25824;SDS011;13658;44.534;18.694;2024-02-21T07:24:14;126.18;;;72.82;;
25824;SDS011;13658;44.534;18.694;2024-02-21T07:26:43;127.43;;;73.13;;
25824;SDS011;13658;44.534;18.694;2024-02-21T07:29:09;131.57;;;74.78;;
25824;SDS011;13658;44.534;18.694;2024-02-21T07:31:42;137.52;;;76.00;;
25824;SDS011;13658;44.534;18.694;2024-02-21T07:34:08;139.65;;;78.70;;
25824;SDS011;13658;44.534;18.694;2024-02-21T07:36:35;132.93;;;75.75;;
25824;SDS011;13658;44.534;18.694;2024-02-21T07:39:03;131.15;;;74.63;;
25824;SDS011;13658;44.534;18.694;2024-02-21T07:41:29;120.07;;;67.15;;
25824;SDS011;13658;44.534;18.694;2024-02-21T07:43:56;111.22;;;63.00;;
25824;SDS011;13658;44.534;18.694;2024-02-21T07:46:22;102.47;;;58.30;;
25824;SDS011;13658;44.534;18.694;2024-02-21T07:48:48;99.15;;;56.95;;
25824;SDS011;13658;44.534;18.694;2024-02-21T07:51:14;98.40;;;56.50;;
25824;SDS011;13658;44.534;18.694;2024-02-21T07:53:43;154.00;;;86.60;;
25824;SDS011;13658;44.534;18.694;2024-02-21T07:56:14;132.48;;;77.63;;
25824;SDS011;13658;44.534;18.694;2024-02-21T07:58:40;139.15;;;82.13;;
25824;SDS011;13658;44.534;18.694;2024-02-21T08:01:07;121.18;;;70.57;;
25824;SDS011;13658;44.534;18.694;2024-02-21T08:03:34;97.93;;;55.95;;
25824;SDS011;13658;44.534;18.694;2024-02-21T08:06:00;76.93;;;44.38;;
25824;SDS011;13658;44.534;18.694;2024-02-21T08:08:26;78.80;;;46.08;;
25824;SDS011;13658;44.534;18.694;2024-02-21T08:10:52;67.03;;;40.10;;
25824;SDS011;13658;44.534;18.694;2024-02-21T08:13:18;56.38;;;32.70;;
25824;SDS011;13658;44.534;18.694;2024-02-21T08:15:44;73.13;;;40.80;;
25824;SDS011;13658;44.534;18.694;2024-02-21T08:18:10;84.43;;;51.33;;
25824;SDS011;13658;44.534;18.694;2024-02-21T08:20:36;82.03;;;48.30;;
25824;SDS011;13658;44.534;18.694;2024-02-21T08:23:01;73.65;;;46.47;;
25824;SDS011;13658;44.534;18.694;2024-02-21T08:25:27;69.47;;;40.92;;
25824;SDS011;13658;44.534;18.694;2024-02-21T08:27:56;39.47;;;24.38;;
25824;SDS011;13658;44.534;18.694;2024-02-21T08:30:23;37.35;;;20.05;;
25824;SDS011;13658;44.534;18.694;2024-02-21T08:32:49;40.83;;;22.45;;
25824;SDS011;13658;44.534;18.694;2024-02-21T08:35:15;45.65;;;28.75;;
25824;SDS011;13658;44.534;18.694;2024-02-21T08:37:43;51.90;;;30.33;;
25824;SDS011;13658;44.534;18.694;2024-02-21T08:40:12;39.63;;;21.30;;
25824;SDS011;13658;44.534;18.694;2024-02-21T08:42:41;37.78;;;21.92;;
25824;SDS011;13658;44.534;18.694;2024-02-21T08:45:07;27.58;;;16.20;;
25824;SDS011;13658;44.534;18.694;2024-02-21T08:47:33;36.65;;;19.00;;
25824;SDS011;13658;44.534;18.694;2024-02-21T08:50:01;39.83;;;20.02;;
25824;SDS011;13658;44.534;18.694;2024-02-21T08:52:28;48.22;;;27.70;;
25824;SDS011;13658;44.534;18.694;2024-02-21T08:54:54;48.90;;;27.02;;
25824;SDS011;13658;44.534;18.694;2024-02-21T08:57:20;36.00;;;20.48;;
25824;SDS011;13658;44.534;18.694;2024-02-21T08:59:46;44.03;;;22.73;;
25824;SDS011;13658;44.534;18.694;2024-02-21T09:02:12;49.72;;;27.02;;
25824;SDS011;13658;44.534;18.694;2024-02-21T09:04:41;48.83;;;27.23;;
25824;SDS011;13658;44.534;18.694;2024-02-21T09:07:07;42.65;;;23.13;;
25824;SDS011;13658;44.534;18.694;2024-02-21T09:09:33;46.05;;;24.33;;
25824;SDS011;13658;44.534;18.694;2024-02-21T09:11:59;43.80;;;25.90;;
25824;SDS011;13658;44.534;18.694;2024-02-21T09:14:31;43.00;;;26.60;;
25824;SDS011;13658;44.534;18.694;2024-02-21T09:16:58;57.55;;;29.50;;
25824;SDS011;13658;44.534;18.694;2024-02-21T09:19:23;59.15;;;29.65;;
25824;SDS011;13658;44.534;18.694;2024-02-21T09:21:49;52.65;;;28.70;;
25824;SDS011;13658;44.534;18.694;2024-02-21T09:24:15;52.03;;;28.55;;
25824;SDS011;13658;44.534;18.694;2024-02-21T09:26:41;51.08;;;27.70;;
25824;SDS011;13658;44.534;18.694;2024-02-21T09:29:07;49.00;;;28.27;;
25824;SDS011;13658;44.534;18.694;2024-02-21T09:31:33;45.50;;;26.55;;
25824;SDS011;13658;44.534;18.694;2024-02-21T09:33:59;45.55;;;26.08;;
25824;SDS011;13658;44.534;18.694;2024-02-21T09:36:24;48.53;;;29.95;;
25824;SDS011;13658;44.534;18.694;2024-02-21T09:38:50;42.70;;;27.50;;
25824;SDS011;13658;44.534;18.694;2024-02-21T09:41:24;54.13;;;32.83;;
25824;SDS011;13658;44.534;18.694;2024-02-21T09:43:52;43.38;;;26.10;;
25824;SDS011;13658;44.534;18.694;2024-02-21T09:46:19;40.45;;;24.52;;
25824;SDS011;13658;44.534;18.694;2024-02-21T09:48:58;44.50;;;28.63;;
25824;SDS011;13658;44.534;18.694;2024-02-21T09:51:34;45.80;;;28.70;;
25824;SDS011;13658;44.534;18.694;2024-02-21T09:54:03;39.13;;;22.70;;
25824;SDS011;13658;44.534;18.694;2024-02-21T09:56:29;28.48;;;18.38;;
25824;SDS011;13658;44.534;18.694;2024-02-21T09:58:55;24.63;;;15.00;;
25824;SDS011;13658;44.534;18.694;2024-02-21T10:01:22;19.08;;;12.30;;
25824;SDS011;13658;44.534;18.694;2024-02-21T10:03:48;11.90;;;8.25;;
25824;SDS011;13658;44.534;18.694;2024-02-21T10:06:14;15.23;;;8.00;;
25824;SDS011;13658;44.534;18.694;2024-02-21T10:08:40;13.77;;;8.10;;
25824;SDS011;13658;44.534;18.694;2024-02-21T10:11:06;14.43;;;8.05;;
25824;SDS011;13658;44.534;18.694;2024-02-21T10:13:34;17.50;;;9.90;;
25824;SDS011;13658;44.534;18.694;2024-02-21T10:16:03;35.60;;;20.02;;
25824;SDS011;13658;44.534;18.694;2024-02-21T10:18:33;51.92;;;29.48;;
25824;SDS011;13658;44.534;18.694;2024-02-21T10:21:06;26.10;;;16.67;;
25824;SDS011;13658;44.534;18.694;2024-02-21T10:23:46;33.17;;;21.35;;
25824;SDS011;13658;44.534;18.694;2024-02-21T10:26:16;33.17;;;21.75;;
25824;SDS011;13658;44.534;18.694;2024-02-21T10:28:44;33.28;;;21.60;;
25824;SDS011;13658;44.534;18.694;2024-02-21T10:31:20;32.30;;;21.42;;
25824;SDS011;13658;44.534;18.694;2024-02-21T10:33:59;41.13;;;22.63;;
25824;SDS011;13658;44.534;18.694;2024-02-21T10:36:29;49.97;;;24.10;;
25824;SDS011;13658;44.534;18.694;2024-02-21T10:38:55;35.83;;;19.75;;
25824;SDS011;13658;44.534;18.694;2024-02-21T10:41:21;43.90;;;22.55;;
25824;SDS011;13658;44.534;18.694;2024-02-21T10:43:49;39.92;;;23.30;;
25824;SDS011;13658;44.534;18.694;2024-02-21T10:46:20;38.10;;;22.35;;
25824;SDS011;13658;44.534;18.694;2024-02-21T10:48:47;39.88;;;22.08;;
25824;SDS011;13658;44.534;18.694;2024-02-21T10:51:20;41.83;;;25.23;;
25824;SDS011;13658;44.534;18.694;2024-02-21T10:56:39;41.22;;;26.23;;
25824;SDS011;13658;44.534;18.694;2024-02-21T10:59:07;32.88;;;20.15;;
25824;SDS011;13658;44.534;18.694;2024-02-21T11:01:33;42.55;;;24.45;;
25824;SDS011;13658;44.534;18.694;2024-02-21T11:04:03;37.47;;;23.50;;
25824;SDS011;13658;44.534;18.694;2024-02-21T11:06:39;38.28;;;24.00;;
25824;SDS011;13658;44.534;18.694;2024-02-21T11:09:07;35.42;;;23.48;;
25824;SDS011;13658;44.534;18.694;2024-02-21T11:16:40;28.20;;;21.05;;
25824;SDS011;13658;44.534;18.694;2024-02-21T11:19:08;31.63;;;23.85;;
25824;SDS011;13658;44.534;18.694;2024-02-21T11:21:36;32.33;;;21.35;;
25824;SDS011;13658;44.534;18.694;2024-02-21T11:24:03;35.35;;;23.92;;
25824;SDS011;13658;44.534;18.694;2024-02-21T11:26:30;32.08;;;21.23;;
25824;SDS011;13658;44.534;18.694;2024-02-21T11:28:57;27.08;;;19.02;;
25824;SDS011;13658;44.534;18.694;2024-02-21T11:31:42;20.85;;;15.00;;
25824;SDS011;13658;44.534;18.694;2024-02-21T11:34:11;20.02;;;15.43;;
25824;SDS011;13658;44.534;18.694;2024-02-21T11:36:51;22.58;;;16.10;;
25824;SDS011;13658;44.534;18.694;2024-02-21T11:39:25;22.15;;;16.33;;
25824;SDS011;13658;44.534;18.694;2024-02-21T11:42:04;14.82;;;11.98;;
25824;SDS011;13658;44.534;18.694;2024-02-21T11:44:33;16.33;;;11.38;;
25824;SDS011;13658;44.534;18.694;2024-02-21T11:47:00;16.13;;;11.80;;
25824;SDS011;13658;44.534;18.694;2024-02-21T11:49:28;22.23;;;13.07;;
25824;SDS011;13658;44.534;18.694;2024-02-21T11:52:01;16.77;;;10.80;;
25824;SDS011;13658;44.534;18.694;2024-02-21T11:54:29;14.93;;;8.73;;
25824;SDS011;13658;44.534;18.694;2024-02-21T11:56:56;13.43;;;8.20;;
25824;SDS011;13658;44.534;18.694;2024-02-21T11:59:22;15.68;;;9.18;;
25824;SDS011;13658;44.534;18.694;2024-02-21T12:01:48;10.65;;;7.15;;
25824;SDS011;13658;44.534;18.694;2024-02-21T12:04:18;13.85;;;8.50;;
25824;SDS011;13658;44.534;18.694;2024-02-21T12:06:45;15.05;;;9.75;;
25824;SDS011;13658;44.534;18.694;2024-02-21T12:09:15;13.15;;;8.80;;
25824;SDS011;13658;44.534;18.694;2024-02-21T12:11:41;16.50;;;8.38;;
25824;SDS011;13658;44.534;18.694;2024-02-21T12:14:08;13.45;;;8.40;;
25824;SDS011;13658;44.534;18.694;2024-02-21T12:16:34;12.50;;;7.05;;
25824;SDS011;13658;44.534;18.694;2024-02-21T12:19:04;13.40;;;7.60;;
25824;SDS011;13658;44.534;18.694;2024-02-21T12:21:30;14.80;;;8.02;;
25824;SDS011;13658;44.534;18.694;2024-02-21T12:23:58;12.15;;;6.68;;
25824;SDS011;13658;44.534;18.694;2024-02-21T12:26:24;13.82;;;6.88;;
25824;SDS011;13658;44.534;18.694;2024-02-21T12:28:52;12.57;;;6.50;;
25824;SDS011;13658;44.534;18.694;2024-02-21T12:31:19;17.75;;;11.40;;
25824;SDS011;13658;44.534;18.694;2024-02-21T12:33:46;15.45;;;8.20;;
25824;SDS011;13658;44.534;18.694;2024-02-21T12:36:13;15.30;;;9.68;;
25824;SDS011;13658;44.534;18.694;2024-02-21T12:38:39;15.27;;;8.77;;
25824;SDS011;13658;44.534;18.694;2024-02-21T12:41:07;14.15;;;9.38;;
25824;SDS011;13658;44.534;18.694;2024-02-21T12:43:34;21.77;;;11.73;;
25824;SDS011;13658;44.534;18.694;2024-02-21T12:46:00;16.80;;;11.15;;
25824;SDS011;13658;44.534;18.694;2024-02-21T12:48:26;19.02;;;10.73;;
25824;SDS011;13658;44.534;18.694;2024-02-21T12:50:52;19.98;;;12.70;;
25824;SDS011;13658;44.534;18.694;2024-02-21T12:53:19;23.08;;;12.85;;
25824;SDS011;13658;44.534;18.694;2024-02-21T12:55:50;20.20;;;9.75;;
25824;SDS011;13658;44.534;18.694;2024-02-21T12:58:16;27.90;;;12.00;;
25824;SDS011;13658;44.534;18.694;2024-02-21T13:00:42;19.50;;;9.90;;
25824;SDS011;13658;44.534;18.694;2024-02-21T13:03:08;23.27;;;11.02;;
25824;SDS011;13658;44.534;18.694;2024-02-21T13:05:37;20.98;;;12.65;;
25824;SDS011;13658;44.534;18.694;2024-02-21T13:08:04;20.55;;;10.68;;
25824;SDS011;13658;44.534;18.694;2024-02-21T13:10:31;27.42;;;11.60;;
25824;SDS011;13658;44.534;18.694;2024-02-21T13:12:59;18.70;;;10.13;;
25824;SDS011;13658;44.534;18.694;2024-02-21T13:15:26;21.52;;;11.63;;
25824;SDS011;13658;44.534;18.694;2024-02-21T13:17:53;21.20;;;10.85;;
25824;SDS011;13658;44.534;18.694;2024-02-21T13:20:21;18.52;;;10.32;;
25824;SDS011;13658;44.534;18.694;2024-02-21T13:22:47;21.30;;;11.38;;
25824;SDS011;13658;44.534;18.694;2024-02-21T13:25:12;18.55;;;10.15;;
25824;SDS011;13658;44.534;18.694;2024-02-21T13:27:43;21.23;;;9.15;;
25824;SDS011;13658;44.534;18.694;2024-02-21T13:30:09;22.63;;;10.57;;
25824;SDS011;13658;44.534;18.694;2024-02-21T13:32:36;20.40;;;10.75;;
25824;SDS011;13658;44.534;18.694;2024-02-21T13:35:03;22.77;;;12.30;;
25824;SDS011;13658;44.534;18.694;2024-02-21T13:37:29;16.48;;;9.10;;
25824;SDS011;13658;44.534;18.694;2024-02-21T13:39:55;18.27;;;9.05;;
25824;SDS011;13658;44.534;18.694;2024-02-21T13:42:21;17.10;;;9.38;;
25824;SDS011;13658;44.534;18.694;2024-02-21T13:44:47;16.20;;;8.00;;
25824;SDS011;13658;44.534;18.694;2024-02-21T13:47:13;14.32;;;8.25;;
25824;SDS011;13658;44.534;18.694;2024-02-21T13:49:40;21.73;;;9.18;;
25824;SDS011;13658;44.534;18.694;2024-02-21T13:52:06;14.50;;;7.90;;
25824;SDS011;13658;44.534;18.694;2024-02-21T13:54:34;15.52;;;8.10;;
25824;SDS011;13658;44.534;18.694;2024-02-21T13:57:00;13.20;;;7.18;;
25824;SDS011;13658;44.534;18.694;2024-02-21T13:59:27;13.77;;;7.10;;
25824;SDS011;13658;44.534;18.694;2024-02-21T14:01:53;15.35;;;7.53;;
25824;SDS011;13658;44.534;18.694;2024-02-21T14:04:19;17.50;;;9.00;;
25824;SDS011;13658;44.534;18.694;2024-02-21T14:06:45;17.77;;;7.97;;
25824;SDS011;13658;44.534;18.694;2024-02-21T14:09:12;14.43;;;7.25;;
25824;SDS011;13658;44.534;18.694;2024-02-21T14:11:38;19.98;;;8.45;;
25824;SDS011;13658;44.534;18.694;2024-02-21T14:14:06;14.60;;;6.40;;
25824;SDS011;13658;44.534;18.694;2024-02-21T14:16:32;12.20;;;6.50;;